sensor_id;sensor_type;location;lat;lon;timestamp;P1;durP1;ratioP1;P2;durP2;ratioP2
68074;SDS011;54864;52.002;5.468;2022-12-29T00:00:28;3.53;;;2.67;;
68074;SDS011;54864;52.002;5.468;2022-12-29T00:01:29;2.60;;;2.40;;
68074;SDS011;54864;52.002;5.468;2022-12-29T00:02:32;4.03;;;2.40;;
68074;SDS011;54864;52.002;5.468;2022-12-29T00:03:33;4.03;;;2.47;;
68074;SDS011;54864;52.002;5.468;2022-12-29T00:04:35;3.65;;;2.20;;
68074;SDS011;54864;52.002;5.468;2022-12-29T00:05:36;2.35;;;2.15;;
68074;SDS011;54864;52.002;5.468;2022-12-29T00:06:38;3.40;;;2.22;;
68074;SDS011;54864;52.002;5.468;2022-12-29T00:07:40;2.60;;;2.30;;
68074;SDS011;54864;52.002;5.468;2022-12-29T00:08:42;2.95;;;2.30;;
68074;SDS011;54864;52.002;5.468;2022-12-29T00:09:43;4.15;;;2.53;;
68074;SDS011;54864;52.002;5.468;2022-12-29T00:10:45;2.42;;;2.22;;
68074;SDS011;54864;52.002;5.468;2022-12-29T00:11:47;4.03;;;2.00;;
68074;SDS011;54864;52.002;5.468;2022-12-29T00:12:50;3.40;;;2.33;;
68074;SDS011;54864;52.002;5.468;2022-12-29T00:14:09;3.58;;;2.35;;
68074;SDS011;54864;52.002;5.468;2022-12-29T00:15:30;2.92;;;2.30;;
68074;SDS011;54864;52.002;5.468;2022-12-29T00:16:38;2.40;;;2.00;;
68074;SDS011;54864;52.002;5.468;2022-12-29T00:17:44;4.05;;;2.40;;
68074;SDS011;54864;52.002;5.468;2022-12-29T00:18:45;4.15;;;2.50;;
68074;SDS011;54864;52.002;5.468;2022-12-29T00:19:47;2.90;;;2.30;;
68074;SDS011;54864;52.002;5.468;2022-12-29T00:21:07;3.22;;;2.40;;
68074;SDS011;54864;52.002;5.468;2022-12-29T00:22:34;4.05;;;2.53;;
68074;SDS011;54864;52.002;5.468;2022-12-29T00:23:54;2.35;;;2.08;;
68074;SDS011;54864;52.002;5.468;2022-12-29T00:25:13;2.67;;;2.42;;
68074;SDS011;54864;52.002;5.468;2022-12-29T00:26:33;2.42;;;2.22;;
68074;SDS011;54864;52.002;5.468;2022-12-29T00:27:52;5.18;;;2.20;;
68074;SDS011;54864;52.002;5.468;2022-12-29T00:29:11;3.53;;;2.42;;
68074;SDS011;54864;52.002;5.468;2022-12-29T00:30:31;2.67;;;2.03;;
68074;SDS011;54864;52.002;5.468;2022-12-29T00:31:50;4.43;;;2.30;;
68074;SDS011;54864;52.002;5.468;2022-12-29T00:33:11;3.10;;;2.30;;
68074;SDS011;54864;52.002;5.468;2022-12-29T00:34:33;2.70;;;2.45;;
68074;SDS011;54864;52.002;5.468;2022-12-29T00:35:53;2.42;;;2.22;;
68074;SDS011;54864;52.002;5.468;2022-12-29T00:37:02;3.03;;;2.30;;
68074;SDS011;54864;52.002;5.468;2022-12-29T00:38:03;2.63;;;2.10;;
68074;SDS011;54864;52.002;5.468;2022-12-29T00:39:26;2.65;;;2.30;;
68074;SDS011;54864;52.002;5.468;2022-12-29T00:40:46;2.33;;;2.10;;
68074;SDS011;54864;52.002;5.468;2022-12-29T00:42:06;2.83;;;2.17;;
68074;SDS011;54864;52.002;5.468;2022-12-29T00:43:28;2.70;;;2.20;;
68074;SDS011;54864;52.002;5.468;2022-12-29T00:44:47;3.50;;;2.30;;
68074;SDS011;54864;52.002;5.468;2022-12-29T00:45:49;4.35;;;2.28;;
68074;SDS011;54864;52.002;5.468;2022-12-29T00:46:50;2.95;;;2.60;;
68074;SDS011;54864;52.002;5.468;2022-12-29T00:47:52;3.90;;;2.40;;
68074;SDS011;54864;52.002;5.468;2022-12-29T00:48:54;2.33;;;2.10;;
68074;SDS011;54864;52.002;5.468;2022-12-29T00:50:14;3.35;;;2.20;;
68074;SDS011;54864;52.002;5.468;2022-12-29T00:51:16;3.00;;;2.42;;
68074;SDS011;54864;52.002;5.468;2022-12-29T00:52:17;2.78;;;1.70;;
68074;SDS011;54864;52.002;5.468;2022-12-29T00:53:20;3.50;;;2.08;;
68074;SDS011;54864;52.002;5.468;2022-12-29T00:54:21;2.55;;;1.77;;
68074;SDS011;54864;52.002;5.468;2022-12-29T00:55:23;4.47;;;1.83;;
68074;SDS011;54864;52.002;5.468;2022-12-29T00:56:24;3.10;;;2.00;;
68074;SDS011;54864;52.002;5.468;2022-12-29T00:57:26;3.25;;;2.10;;
68074;SDS011;54864;52.002;5.468;2022-12-29T00:58:28;3.22;;;1.98;;
68074;SDS011;54864;52.002;5.468;2022-12-29T00:59:30;2.22;;;1.70;;
68074;SDS011;54864;52.002;5.468;2022-12-29T01:00:32;2.58;;;1.63;;
68074;SDS011;54864;52.002;5.468;2022-12-29T01:01:34;2.78;;;1.60;;
68074;SDS011;54864;52.002;5.468;2022-12-29T01:02:36;2.72;;;1.60;;
68074;SDS011;54864;52.002;5.468;2022-12-29T01:03:38;2.75;;;1.48;;
68074;SDS011;54864;52.002;5.468;2022-12-29T01:04:41;2.33;;;1.60;;
68074;SDS011;54864;52.002;5.468;2022-12-29T01:05:43;3.17;;;1.58;;
68074;SDS011;54864;52.002;5.468;2022-12-29T01:06:44;4.93;;;1.50;;
68074;SDS011;54864;52.002;5.468;2022-12-29T01:07:47;3.28;;;1.48;;
68074;SDS011;54864;52.002;5.468;2022-12-29T01:08:48;3.67;;;1.80;;
68074;SDS011;54864;52.002;5.468;2022-12-29T01:10:10;2.90;;;1.60;;
68074;SDS011;54864;52.002;5.468;2022-12-29T01:11:12;2.38;;;1.27;;
68074;SDS011;54864;52.002;5.468;2022-12-29T01:12:13;1.92;;;1.48;;
68074;SDS011;54864;52.002;5.468;2022-12-29T01:13:15;1.38;;;1.27;;
68074;SDS011;54864;52.002;5.468;2022-12-29T01:14:17;1.95;;;1.40;;
68074;SDS011;54864;52.002;5.468;2022-12-29T01:15:20;2.53;;;1.33;;
68074;SDS011;54864;52.002;5.468;2022-12-29T01:16:21;2.50;;;1.40;;
68074;SDS011;54864;52.002;5.468;2022-12-29T01:17:23;2.22;;;1.40;;
68074;SDS011;54864;52.002;5.468;2022-12-29T01:18:24;1.60;;;1.30;;
68074;SDS011;54864;52.002;5.468;2022-12-29T01:19:27;2.63;;;1.30;;
68074;SDS011;54864;52.002;5.468;2022-12-29T01:20:30;3.38;;;1.48;;
68074;SDS011;54864;52.002;5.468;2022-12-29T01:21:32;2.85;;;1.20;;
68074;SDS011;54864;52.002;5.468;2022-12-29T01:22:33;1.40;;;1.30;;
68074;SDS011;54864;52.002;5.468;2022-12-29T01:23:36;3.17;;;1.50;;
68074;SDS011;54864;52.002;5.468;2022-12-29T01:24:37;2.55;;;1.40;;
68074;SDS011;54864;52.002;5.468;2022-12-29T01:25:39;3.00;;;1.30;;
68074;SDS011;54864;52.002;5.468;2022-12-29T01:26:40;2.13;;;1.10;;
68074;SDS011;54864;52.002;5.468;2022-12-29T01:27:42;2.05;;;1.20;;
68074;SDS011;54864;52.002;5.468;2022-12-29T01:28:44;2.72;;;1.30;;
68074;SDS011;54864;52.002;5.468;2022-12-29T01:29:46;1.55;;;1.23;;
68074;SDS011;54864;52.002;5.468;2022-12-29T01:30:47;2.08;;;1.20;;
68074;SDS011;54864;52.002;5.468;2022-12-29T01:31:49;1.40;;;1.20;;
68074;SDS011;54864;52.002;5.468;2022-12-29T01:32:50;1.05;;;1.02;;
68074;SDS011;54864;52.002;5.468;2022-12-29T01:33:52;1.67;;;1.25;;
68074;SDS011;54864;52.002;5.468;2022-12-29T01:34:53;2.83;;;1.35;;
68074;SDS011;54864;52.002;5.468;2022-12-29T01:35:57;3.25;;;1.42;;
68074;SDS011;54864;52.002;5.468;2022-12-29T01:37:00;2.08;;;1.40;;
68074;SDS011;54864;52.002;5.468;2022-12-29T01:38:02;1.48;;;1.38;;
68074;SDS011;54864;52.002;5.468;2022-12-29T01:39:03;1.85;;;1.20;;
68074;SDS011;54864;52.002;5.468;2022-12-29T01:40:09;3.35;;;1.58;;
68074;SDS011;54864;52.002;5.468;2022-12-29T01:41:11;1.58;;;1.48;;
68074;SDS011;54864;52.002;5.468;2022-12-29T01:42:17;2.80;;;1.20;;
68074;SDS011;54864;52.002;5.468;2022-12-29T01:43:37;2.65;;;1.60;;
68074;SDS011;54864;52.002;5.468;2022-12-29T01:44:50;1.58;;;1.33;;
68074;SDS011;54864;52.002;5.468;2022-12-29T01:45:54;2.67;;;1.45;;
68074;SDS011;54864;52.002;5.468;2022-12-29T01:46:56;1.80;;;1.42;;
68074;SDS011;54864;52.002;5.468;2022-12-29T01:47:58;3.30;;;1.75;;
68074;SDS011;54864;52.002;5.468;2022-12-29T01:49:08;2.70;;;1.48;;
68074;SDS011;54864;52.002;5.468;2022-12-29T01:50:16;2.90;;;1.45;;
68074;SDS011;54864;52.002;5.468;2022-12-29T01:51:27;1.92;;;1.52;;
68074;SDS011;54864;52.002;5.468;2022-12-29T01:52:33;1.83;;;1.60;;
68074;SDS011;54864;52.002;5.468;2022-12-29T01:53:43;1.70;;;1.50;;
68074;SDS011;54864;52.002;5.468;2022-12-29T01:54:46;3.40;;;1.60;;
68074;SDS011;54864;52.002;5.468;2022-12-29T01:55:55;2.17;;;1.50;;
68074;SDS011;54864;52.002;5.468;2022-12-29T01:57:05;3.03;;;1.97;;
68074;SDS011;54864;52.002;5.468;2022-12-29T01:58:14;3.15;;;1.50;;
68074;SDS011;54864;52.002;5.468;2022-12-29T01:59:22;4.78;;;1.80;;
68074;SDS011;54864;52.002;5.468;2022-12-29T02:00:32;3.45;;;1.67;;
68074;SDS011;54864;52.002;5.468;2022-12-29T02:01:34;2.50;;;1.98;;
68074;SDS011;54864;52.002;5.468;2022-12-29T02:02:35;4.63;;;1.70;;
68074;SDS011;54864;52.002;5.468;2022-12-29T02:03:39;1.90;;;1.60;;
68074;SDS011;54864;52.002;5.468;2022-12-29T02:04:41;2.55;;;1.73;;
68074;SDS011;54864;52.002;5.468;2022-12-29T02:05:46;2.63;;;1.80;;
68074;SDS011;54864;52.002;5.468;2022-12-29T02:06:57;2.88;;;1.70;;
68074;SDS011;54864;52.002;5.468;2022-12-29T02:08:08;3.03;;;1.83;;
68074;SDS011;54864;52.002;5.468;2022-12-29T02:09:11;4.25;;;1.88;;
68074;SDS011;54864;52.002;5.468;2022-12-29T02:10:13;3.08;;;1.77;;
68074;SDS011;54864;52.002;5.468;2022-12-29T02:11:15;1.95;;;1.50;;
68074;SDS011;54864;52.002;5.468;2022-12-29T02:12:18;2.20;;;1.70;;
68074;SDS011;54864;52.002;5.468;2022-12-29T02:13:23;1.70;;;1.50;;
68074;SDS011;54864;52.002;5.468;2022-12-29T02:14:26;3.88;;;1.67;;
68074;SDS011;54864;52.002;5.468;2022-12-29T02:15:29;1.83;;;1.38;;
68074;SDS011;54864;52.002;5.468;2022-12-29T02:16:51;2.50;;;1.40;;
68074;SDS011;54864;52.002;5.468;2022-12-29T02:18:10;2.03;;;1.60;;
68074;SDS011;54864;52.002;5.468;2022-12-29T02:21:33;2.35;;;1.70;;
68074;SDS011;54864;52.002;5.468;2022-12-29T02:23:03;2.53;;;1.23;;
68074;SDS011;54864;52.002;5.468;2022-12-29T02:26:27;3.88;;;1.20;;
68074;SDS011;54864;52.002;5.468;2022-12-29T02:27:48;3.80;;;1.35;;
68074;SDS011;54864;52.002;5.468;2022-12-29T02:30:56;3.92;;;1.20;;
68074;SDS011;54864;52.002;5.468;2022-12-29T02:32:13;2.75;;;1.02;;
68074;SDS011;54864;52.002;5.468;2022-12-29T02:33:31;1.35;;;0.95;;
68074;SDS011;54864;52.002;5.468;2022-12-29T02:35:00;3.85;;;1.10;;
68074;SDS011;54864;52.002;5.468;2022-12-29T02:36:07;3.22;;;1.23;;
68074;SDS011;54864;52.002;5.468;2022-12-29T02:37:22;5.22;;;1.30;;
68074;SDS011;54864;52.002;5.468;2022-12-29T02:38:36;6.67;;;1.63;;
68074;SDS011;54864;52.002;5.468;2022-12-29T02:39:53;1.60;;;1.17;;
68074;SDS011;54864;52.002;5.468;2022-12-29T02:41:07;3.13;;;0.77;;
68074;SDS011;54864;52.002;5.468;2022-12-29T02:42:20;2.50;;;1.17;;
68074;SDS011;54864;52.002;5.468;2022-12-29T02:43:37;4.60;;;1.00;;
68074;SDS011;54864;52.002;5.468;2022-12-29T02:44:55;2.40;;;1.00;;
68074;SDS011;54864;52.002;5.468;2022-12-29T02:46:08;2.58;;;0.90;;
68074;SDS011;54864;52.002;5.468;2022-12-29T02:47:24;3.67;;;1.15;;
68074;SDS011;54864;52.002;5.468;2022-12-29T02:48:38;2.45;;;0.82;;
68074;SDS011;54864;52.002;5.468;2022-12-29T02:49:50;2.38;;;0.88;;
68074;SDS011;54864;52.002;5.468;2022-12-29T02:50:59;1.92;;;0.82;;
68074;SDS011;54864;52.002;5.468;2022-12-29T02:52:06;3.05;;;0.80;;
68074;SDS011;54864;52.002;5.468;2022-12-29T02:53:17;2.55;;;1.10;;
68074;SDS011;54864;52.002;5.468;2022-12-29T02:54:41;3.63;;;1.20;;
68074;SDS011;54864;52.002;5.468;2022-12-29T02:55:47;2.30;;;0.90;;
68074;SDS011;54864;52.002;5.468;2022-12-29T02:56:50;2.38;;;1.02;;
68074;SDS011;54864;52.002;5.468;2022-12-29T02:58:06;3.05;;;0.90;;
68074;SDS011;54864;52.002;5.468;2022-12-29T02:59:18;1.30;;;0.93;;
68074;SDS011;54864;52.002;5.468;2022-12-29T03:00:19;3.42;;;1.10;;
68074;SDS011;54864;52.002;5.468;2022-12-29T03:01:26;4.20;;;1.42;;
68074;SDS011;54864;52.002;5.468;2022-12-29T03:03:12;3.58;;;1.20;;
68074;SDS011;54864;52.002;5.468;2022-12-29T03:04:30;3.95;;;1.35;;
68074;SDS011;54864;52.002;5.468;2022-12-29T03:06:00;3.03;;;1.13;;
68074;SDS011;54864;52.002;5.468;2022-12-29T03:07:24;2.55;;;1.20;;
68074;SDS011;54864;52.002;5.468;2022-12-29T03:08:40;4.20;;;1.45;;
68074;SDS011;54864;52.002;5.468;2022-12-29T03:09:56;4.63;;;1.30;;
68074;SDS011;54864;52.002;5.468;2022-12-29T03:11:09;2.83;;;1.20;;
68074;SDS011;54864;52.002;5.468;2022-12-29T03:12:29;2.28;;;1.20;;
68074;SDS011;54864;52.002;5.468;2022-12-29T03:13:55;4.40;;;1.30;;
68074;SDS011;54864;52.002;5.468;2022-12-29T03:15:21;3.20;;;1.17;;
68074;SDS011;54864;52.002;5.468;2022-12-29T03:16:53;3.88;;;1.30;;
68074;SDS011;54864;52.002;5.468;2022-12-29T03:18:04;2.47;;;1.30;;
68074;SDS011;54864;52.002;5.468;2022-12-29T03:19:15;2.83;;;1.20;;
68074;SDS011;54864;52.002;5.468;2022-12-29T03:20:23;3.80;;;1.30;;
68074;SDS011;54864;52.002;5.468;2022-12-29T03:21:33;4.20;;;1.20;;
68074;SDS011;54864;52.002;5.468;2022-12-29T03:22:58;3.38;;;1.10;;
68074;SDS011;54864;52.002;5.468;2022-12-29T03:24:05;2.63;;;1.30;;
68074;SDS011;54864;52.002;5.468;2022-12-29T03:25:08;2.92;;;1.52;;
68074;SDS011;54864;52.002;5.468;2022-12-29T03:26:16;1.70;;;0.80;;
68074;SDS011;54864;52.002;5.468;2022-12-29T03:27:21;2.85;;;1.20;;
68074;SDS011;54864;52.002;5.468;2022-12-29T03:28:28;3.78;;;1.30;;
68074;SDS011;54864;52.002;5.468;2022-12-29T03:29:37;3.20;;;1.25;;
68074;SDS011;54864;52.002;5.468;2022-12-29T03:30:46;2.17;;;1.10;;
68074;SDS011;54864;52.002;5.468;2022-12-29T03:31:49;2.85;;;1.35;;
68074;SDS011;54864;52.002;5.468;2022-12-29T03:32:54;3.17;;;1.13;;
68074;SDS011;54864;52.002;5.468;2022-12-29T03:34:03;3.08;;;1.45;;
68074;SDS011;54864;52.002;5.468;2022-12-29T03:35:09;3.58;;;1.35;;
68074;SDS011;54864;52.002;5.468;2022-12-29T03:36:19;2.63;;;1.20;;
68074;SDS011;54864;52.002;5.468;2022-12-29T03:37:26;3.55;;;1.38;;
68074;SDS011;54864;52.002;5.468;2022-12-29T03:38:41;3.05;;;1.10;;
68074;SDS011;54864;52.002;5.468;2022-12-29T03:39:49;4.03;;;1.50;;
68074;SDS011;54864;52.002;5.468;2022-12-29T03:40:52;2.60;;;1.25;;
68074;SDS011;54864;52.002;5.468;2022-12-29T03:41:59;3.35;;;1.10;;
68074;SDS011;54864;52.002;5.468;2022-12-29T03:43:06;2.10;;;1.20;;
68074;SDS011;54864;52.002;5.468;2022-12-29T03:44:09;3.17;;;1.35;;
68074;SDS011;54864;52.002;5.468;2022-12-29T03:45:11;4.47;;;1.10;;
68074;SDS011;54864;52.002;5.468;2022-12-29T03:46:12;2.78;;;1.35;;
68074;SDS011;54864;52.002;5.468;2022-12-29T03:47:16;2.17;;;1.40;;
68074;SDS011;54864;52.002;5.468;2022-12-29T03:48:17;4.30;;;1.23;;
68074;SDS011;54864;52.002;5.468;2022-12-29T03:49:19;3.08;;;1.13;;
68074;SDS011;54864;52.002;5.468;2022-12-29T03:50:20;7.13;;;1.60;;
68074;SDS011;54864;52.002;5.468;2022-12-29T03:51:22;3.78;;;1.30;;
68074;SDS011;54864;52.002;5.468;2022-12-29T03:52:24;3.75;;;1.38;;
68074;SDS011;54864;52.002;5.468;2022-12-29T03:53:26;6.40;;;1.55;;
68074;SDS011;54864;52.002;5.468;2022-12-29T03:54:27;4.32;;;1.27;;
68074;SDS011;54864;52.002;5.468;2022-12-29T03:55:29;4.82;;;1.35;;
68074;SDS011;54864;52.002;5.468;2022-12-29T03:56:30;3.40;;;1.30;;
68074;SDS011;54864;52.002;5.468;2022-12-29T03:57:32;5.35;;;1.30;;
68074;SDS011;54864;52.002;5.468;2022-12-29T03:58:33;2.67;;;1.58;;
68074;SDS011;54864;52.002;5.468;2022-12-29T03:59:36;3.75;;;1.40;;
68074;SDS011;54864;52.002;5.468;2022-12-29T04:00:37;4.15;;;1.60;;
68074;SDS011;54864;52.002;5.468;2022-12-29T04:01:39;4.22;;;1.40;;
68074;SDS011;54864;52.002;5.468;2022-12-29T04:02:42;3.20;;;1.60;;
68074;SDS011;54864;52.002;5.468;2022-12-29T04:03:44;4.63;;;1.40;;
68074;SDS011;54864;52.002;5.468;2022-12-29T04:04:45;5.18;;;2.20;;
68074;SDS011;54864;52.002;5.468;2022-12-29T04:05:47;2.90;;;1.30;;
68074;SDS011;54864;52.002;5.468;2022-12-29T04:06:48;3.30;;;1.73;;
68074;SDS011;54864;52.002;5.468;2022-12-29T04:07:50;3.05;;;1.23;;
68074;SDS011;54864;52.002;5.468;2022-12-29T04:08:51;7.22;;;1.42;;
68074;SDS011;54864;52.002;5.468;2022-12-29T04:09:53;5.15;;;1.60;;
68074;SDS011;54864;52.002;5.468;2022-12-29T04:10:54;2.47;;;1.55;;
68074;SDS011;54864;52.002;5.468;2022-12-29T04:11:56;4.07;;;1.60;;
68074;SDS011;54864;52.002;5.468;2022-12-29T04:12:57;4.90;;;1.70;;
68074;SDS011;54864;52.002;5.468;2022-12-29T04:13:59;5.45;;;1.85;;
68074;SDS011;54864;52.002;5.468;2022-12-29T04:15:00;4.78;;;1.35;;
68074;SDS011;54864;52.002;5.468;2022-12-29T04:16:02;4.20;;;1.45;;
68074;SDS011;54864;52.002;5.468;2022-12-29T04:17:04;4.00;;;1.58;;
68074;SDS011;54864;52.002;5.468;2022-12-29T04:18:10;6.18;;;1.75;;
68074;SDS011;54864;52.002;5.468;2022-12-29T04:19:11;3.15;;;1.42;;
68074;SDS011;54864;52.002;5.468;2022-12-29T04:20:14;4.07;;;1.77;;
68074;SDS011;54864;52.002;5.468;2022-12-29T04:21:33;5.20;;;1.80;;
68074;SDS011;54864;52.002;5.468;2022-12-29T04:22:36;6.70;;;2.13;;
68074;SDS011;54864;52.002;5.468;2022-12-29T04:23:39;5.38;;;1.80;;
68074;SDS011;54864;52.002;5.468;2022-12-29T04:24:41;6.45;;;1.52;;
68074;SDS011;54864;52.002;5.468;2022-12-29T04:25:44;5.60;;;1.70;;
68074;SDS011;54864;52.002;5.468;2022-12-29T04:26:47;5.90;;;1.73;;
68074;SDS011;54864;52.002;5.468;2022-12-29T04:27:48;6.45;;;1.52;;
68074;SDS011;54864;52.002;5.468;2022-12-29T04:28:50;6.65;;;1.77;;
68074;SDS011;54864;52.002;5.468;2022-12-29T04:29:51;5.93;;;1.77;;
68074;SDS011;54864;52.002;5.468;2022-12-29T04:30:53;5.75;;;2.28;;
68074;SDS011;54864;52.002;5.468;2022-12-29T04:31:54;7.88;;;1.90;;
68074;SDS011;54864;52.002;5.468;2022-12-29T04:32:56;5.60;;;1.75;;
68074;SDS011;54864;52.002;5.468;2022-12-29T04:33:59;10.80;;;2.08;;
68074;SDS011;54864;52.002;5.468;2022-12-29T04:35:01;8.25;;;1.70;;
68074;SDS011;54864;52.002;5.468;2022-12-29T04:36:02;9.32;;;2.20;;
68074;SDS011;54864;52.002;5.468;2022-12-29T04:37:04;6.07;;;2.03;;
68074;SDS011;54864;52.002;5.468;2022-12-29T04:38:06;6.15;;;2.10;;
68074;SDS011;54864;52.002;5.468;2022-12-29T04:39:07;6.80;;;2.13;;
68074;SDS011;54864;52.002;5.468;2022-12-29T04:40:09;7.70;;;2.22;;
68074;SDS011;54864;52.002;5.468;2022-12-29T04:41:12;9.25;;;1.83;;
68074;SDS011;54864;52.002;5.468;2022-12-29T04:42:14;8.13;;;2.38;;
68074;SDS011;54864;52.002;5.468;2022-12-29T04:43:16;8.52;;;1.88;;
68074;SDS011;54864;52.002;5.468;2022-12-29T04:44:19;8.35;;;2.42;;
68074;SDS011;54864;52.002;5.468;2022-12-29T04:45:20;10.20;;;2.38;;
68074;SDS011;54864;52.002;5.468;2022-12-29T04:46:22;8.95;;;2.13;;
68074;SDS011;54864;52.002;5.468;2022-12-29T04:47:23;8.95;;;2.20;;
68074;SDS011;54864;52.002;5.468;2022-12-29T04:48:25;12.73;;;2.38;;
68074;SDS011;54864;52.002;5.468;2022-12-29T04:49:28;12.77;;;2.37;;
68074;SDS011;54864;52.002;5.468;2022-12-29T04:50:30;8.35;;;2.30;;
68074;SDS011;54864;52.002;5.468;2022-12-29T04:51:31;8.30;;;2.22;;
68074;SDS011;54864;52.002;5.468;2022-12-29T04:52:33;8.18;;;2.10;;
68074;SDS011;54864;52.002;5.468;2022-12-29T04:53:34;6.25;;;2.13;;
68074;SDS011;54864;52.002;5.468;2022-12-29T04:54:36;11.82;;;2.38;;
68074;SDS011;54864;52.002;5.468;2022-12-29T04:55:37;8.57;;;1.73;;
68074;SDS011;54864;52.002;5.468;2022-12-29T04:56:39;11.40;;;2.28;;
68074;SDS011;54864;52.002;5.468;2022-12-29T04:57:40;9.07;;;2.35;;
68074;SDS011;54864;52.002;5.468;2022-12-29T04:58:43;13.52;;;2.25;;
68074;SDS011;54864;52.002;5.468;2022-12-29T04:59:44;9.57;;;2.15;;
68074;SDS011;54864;52.002;5.468;2022-12-29T05:00:46;10.35;;;2.55;;
68074;SDS011;54864;52.002;5.468;2022-12-29T05:01:47;9.23;;;2.60;;
68074;SDS011;54864;52.002;5.468;2022-12-29T05:02:48;12.30;;;2.40;;
68074;SDS011;54864;52.002;5.468;2022-12-29T05:03:51;10.10;;;2.65;;
68074;SDS011;54864;52.002;5.468;2022-12-29T05:04:53;9.63;;;2.38;;
68074;SDS011;54864;52.002;5.468;2022-12-29T05:05:55;16.83;;;2.63;;
68074;SDS011;54864;52.002;5.468;2022-12-29T05:06:57;9.97;;;2.43;;
68074;SDS011;54864;52.002;5.468;2022-12-29T05:07:59;14.38;;;2.70;;
68074;SDS011;54864;52.002;5.468;2022-12-29T05:09:00;12.70;;;2.42;;
68074;SDS011;54864;52.002;5.468;2022-12-29T05:10:03;8.52;;;1.92;;
68074;SDS011;54864;52.002;5.468;2022-12-29T05:11:08;10.18;;;2.15;;
68074;SDS011;54864;52.002;5.468;2022-12-29T05:12:10;7.97;;;2.38;;
68074;SDS011;54864;52.002;5.468;2022-12-29T05:13:12;10.05;;;2.40;;
68074;SDS011;54864;52.002;5.468;2022-12-29T05:14:14;9.95;;;2.50;;
68074;SDS011;54864;52.002;5.468;2022-12-29T05:15:15;10.77;;;2.30;;
68074;SDS011;54864;52.002;5.468;2022-12-29T05:16:17;7.95;;;2.17;;
68074;SDS011;54864;52.002;5.468;2022-12-29T05:17:18;7.63;;;2.30;;
68074;SDS011;54864;52.002;5.468;2022-12-29T05:18:20;7.63;;;2.10;;
68074;SDS011;54864;52.002;5.468;2022-12-29T05:19:21;12.65;;;2.63;;
68074;SDS011;54864;52.002;5.468;2022-12-29T05:20:24;7.40;;;1.90;;
68074;SDS011;54864;52.002;5.468;2022-12-29T05:21:25;10.57;;;2.40;;
68074;SDS011;54864;52.002;5.468;2022-12-29T05:22:28;8.88;;;2.40;;
68074;SDS011;54864;52.002;5.468;2022-12-29T05:23:29;9.13;;;2.20;;
68074;SDS011;54864;52.002;5.468;2022-12-29T05:24:31;8.60;;;2.47;;
68074;SDS011;54864;52.002;5.468;2022-12-29T05:25:32;7.35;;;1.90;;
68074;SDS011;54864;52.002;5.468;2022-12-29T05:26:34;12.63;;;2.33;;
68074;SDS011;54864;52.002;5.468;2022-12-29T05:27:35;7.90;;;2.28;;
68074;SDS011;54864;52.002;5.468;2022-12-29T05:28:37;8.93;;;2.00;;
68074;SDS011;54864;52.002;5.468;2022-12-29T05:29:38;9.32;;;2.30;;
68074;SDS011;54864;52.002;5.468;2022-12-29T05:30:40;7.30;;;2.30;;
68074;SDS011;54864;52.002;5.468;2022-12-29T05:31:41;10.02;;;2.78;;
68074;SDS011;54864;52.002;5.468;2022-12-29T05:32:43;6.95;;;1.98;;
68074;SDS011;54864;52.002;5.468;2022-12-29T05:33:43;7.38;;;2.38;;
68074;SDS011;54864;52.002;5.468;2022-12-29T05:34:46;10.52;;;2.70;;
68074;SDS011;54864;52.002;5.468;2022-12-29T05:35:48;8.23;;;2.47;;
68074;SDS011;54864;52.002;5.468;2022-12-29T05:36:50;8.55;;;2.20;;
68074;SDS011;54864;52.002;5.468;2022-12-29T05:37:51;11.40;;;2.10;;
68074;SDS011;54864;52.002;5.468;2022-12-29T05:38:53;8.27;;;2.28;;
68074;SDS011;54864;52.002;5.468;2022-12-29T05:39:54;10.35;;;2.15;;
68074;SDS011;54864;52.002;5.468;2022-12-29T05:40:56;8.43;;;2.30;;
68074;SDS011;54864;52.002;5.468;2022-12-29T05:41:57;10.18;;;2.10;;
68074;SDS011;54864;52.002;5.468;2022-12-29T05:42:59;11.45;;;2.40;;
68074;SDS011;54864;52.002;5.468;2022-12-29T05:44:00;8.20;;;2.45;;
68074;SDS011;54864;52.002;5.468;2022-12-29T05:45:03;7.65;;;2.75;;
68074;SDS011;54864;52.002;5.468;2022-12-29T05:46:07;9.53;;;2.07;;
68074;SDS011;54864;52.002;5.468;2022-12-29T05:47:09;10.63;;;2.50;;
68074;SDS011;54864;52.002;5.468;2022-12-29T05:48:10;10.98;;;2.42;;
68074;SDS011;54864;52.002;5.468;2022-12-29T05:49:13;6.35;;;2.20;;
68074;SDS011;54864;52.002;5.468;2022-12-29T05:50:14;10.82;;;2.28;;
68074;SDS011;54864;52.002;5.468;2022-12-29T05:51:18;10.38;;;3.00;;
68074;SDS011;54864;52.002;5.468;2022-12-29T05:52:19;6.30;;;2.00;;
68074;SDS011;54864;52.002;5.468;2022-12-29T05:53:21;7.38;;;2.58;;
68074;SDS011;54864;52.002;5.468;2022-12-29T05:54:22;8.52;;;2.65;;
68074;SDS011;54864;52.002;5.468;2022-12-29T05:55:24;12.95;;;2.45;;
68074;SDS011;54864;52.002;5.468;2022-12-29T05:56:25;8.55;;;2.67;;
68074;SDS011;54864;52.002;5.468;2022-12-29T05:57:27;11.63;;;2.25;;
68074;SDS011;54864;52.002;5.468;2022-12-29T05:58:28;11.32;;;2.97;;
68074;SDS011;54864;52.002;5.468;2022-12-29T05:59:30;11.93;;;2.88;;
68074;SDS011;54864;52.002;5.468;2022-12-29T06:00:31;10.70;;;2.28;;
68074;SDS011;54864;52.002;5.468;2022-12-29T06:01:33;12.13;;;3.22;;
68074;SDS011;54864;52.002;5.468;2022-12-29T06:02:35;10.05;;;2.47;;
68074;SDS011;54864;52.002;5.468;2022-12-29T06:03:37;11.38;;;2.83;;
68074;SDS011;54864;52.002;5.468;2022-12-29T06:04:38;11.73;;;2.30;;
68074;SDS011;54864;52.002;5.468;2022-12-29T06:05:40;12.20;;;2.47;;
68074;SDS011;54864;52.002;5.468;2022-12-29T06:06:42;10.60;;;2.55;;
68074;SDS011;54864;52.002;5.468;2022-12-29T06:07:44;11.40;;;2.90;;
68074;SDS011;54864;52.002;5.468;2022-12-29T06:08:45;8.48;;;2.25;;
68074;SDS011;54864;52.002;5.468;2022-12-29T06:09:47;9.80;;;2.75;;
68074;SDS011;54864;52.002;5.468;2022-12-29T06:10:49;6.72;;;2.00;;
68074;SDS011;54864;52.002;5.468;2022-12-29T06:11:51;7.85;;;2.33;;
68074;SDS011;54864;52.002;5.468;2022-12-29T06:12:52;9.80;;;2.40;;
68074;SDS011;54864;52.002;5.468;2022-12-29T06:13:54;8.07;;;2.38;;
68074;SDS011;54864;52.002;5.468;2022-12-29T06:14:55;7.85;;;2.63;;
68074;SDS011;54864;52.002;5.468;2022-12-29T06:15:58;8.50;;;2.42;;
68074;SDS011;54864;52.002;5.468;2022-12-29T06:17:00;9.52;;;2.45;;
68074;SDS011;54864;52.002;5.468;2022-12-29T06:18:01;9.68;;;2.25;;
68074;SDS011;54864;52.002;5.468;2022-12-29T06:19:03;10.93;;;2.38;;
68074;SDS011;54864;52.002;5.468;2022-12-29T06:20:05;12.77;;;2.50;;
68074;SDS011;54864;52.002;5.468;2022-12-29T06:21:08;11.35;;;2.30;;
68074;SDS011;54864;52.002;5.468;2022-12-29T06:22:12;9.07;;;2.78;;
68074;SDS011;54864;52.002;5.468;2022-12-29T06:23:13;8.32;;;2.35;;
68074;SDS011;54864;52.002;5.468;2022-12-29T06:24:16;9.75;;;2.55;;
68074;SDS011;54864;52.002;5.468;2022-12-29T06:25:17;9.73;;;2.83;;
68074;SDS011;54864;52.002;5.468;2022-12-29T06:26:20;7.95;;;2.78;;
68074;SDS011;54864;52.002;5.468;2022-12-29T06:27:21;9.60;;;2.40;;
68074;SDS011;54864;52.002;5.468;2022-12-29T06:28:23;9.30;;;2.60;;
68074;SDS011;54864;52.002;5.468;2022-12-29T06:29:24;11.38;;;2.67;;
68074;SDS011;54864;52.002;5.468;2022-12-29T06:30:26;7.25;;;2.50;;
68074;SDS011;54864;52.002;5.468;2022-12-29T06:31:27;9.73;;;2.45;;
68074;SDS011;54864;52.002;5.468;2022-12-29T06:32:30;8.48;;;2.33;;
68074;SDS011;54864;52.002;5.468;2022-12-29T06:33:31;7.85;;;2.20;;
68074;SDS011;54864;52.002;5.468;2022-12-29T06:34:33;8.43;;;2.35;;
68074;SDS011;54864;52.002;5.468;2022-12-29T06:35:34;11.68;;;3.00;;
68074;SDS011;54864;52.002;5.468;2022-12-29T06:36:37;14.43;;;2.78;;
68074;SDS011;54864;52.002;5.468;2022-12-29T06:37:41;15.10;;;3.30;;
68074;SDS011;54864;52.002;5.468;2022-12-29T06:38:42;14.55;;;2.58;;
68074;SDS011;54864;52.002;5.468;2022-12-29T06:39:44;12.02;;;2.85;;
68074;SDS011;54864;52.002;5.468;2022-12-29T06:40:46;9.98;;;2.80;;